Ana Sayfa
METAR-TAF:

METAR-TAF

Havaalanları :

Kimble County Airport

Junction, Teksas, Amerika Birleşik Devletleri

Enlem: 30-30-39N, Boylam: 099-45-59W, yükseklik: 527 m

Güncel hava durumu gözlemi

Rapor saat 05:51 UTC de 20 dakika önce yapıldı.
Rüzgar güney/güneybatıdan 4 kt
Sıcaklık 27°C
Nem 54%
Basınç 1016 hPa
Görüş mesafesi: 16.1 km
Açık gökyüzü

METAR: KJCT 160551Z AUTO 21004KT 10SM CLR 27/17 A3001 RMK AO2 SLP121 T02670172 10356 20261 403670222 51012

Saat: 01:11 (06:11 UTC)

Tahmin

Rapor saat 05:21 UTC de 50 dakika önce yapıldı.
Ayın 16'si saat 06 UTC'den ayın 17'si saat 06 UTC'ye kadar geçerli Tahmin
Rüzgar güneydan 7 kt
Görüş mesafesi: 10 km
Açık gökyüzü
Ayın 16'si saat 1600 UTC'den
Rüzgar güneydan 10 kt ve 17 kt'a kadar ani rüzgarlar
Görüş mesafesi: 10 km
Açık gökyüzü
Ayın 17'si saat 0000 UTC'den
Rüzgar güneydan 11 kt
Görüş mesafesi: 10 km
Açık gökyüzü

TAF: KJCT 160521Z 1606/1706 18007KT P6SM SKC FM161600 18010G17KT P6SM SKC FM170000 17011KT P6SM SKC

4.000'den fazla havaalanı için hava durumu gözlemleri ve tahminleri (METAR ve TAF raporları).

Kullanılabilir istasyonlar harita üzerinde sarı ve kırmızı noktalarla gösterilir.

İstasyonun adını görmek için fareyi noktanın üzerinde gezdirin.

Sonrasında hava gözlem ve tahminlerini görmek için tıklayın.

Haritayı değiştirmek için: yaklaştırmak için siyah artı işaretli yeşil düğmeye ve uzaklaştırmak için de eksi işaretli düğmeye hızla tıklayın; bitişik haritalar için yeşil okları kullanın.


METAR-TAF: